الصفحة الرئيسية
METAR-TAF:

METAR-TAF

مطار :

مطار ليوبولد سيدار سنغور الدولي

دكار, السنغال

دائرة عرض: 14-44N, خط طول: 017-30W, ارتفاع: 27 متر

مراقبة الطقس الحالي

تاريخ ووقت الإصدار 36 دقيقة قبل الساعة 21:00UTC
رياح هادئة
درجة الحرارة 26°درجة مئوية
الرطوبة 74%
ضغط 1009 hPa
الرؤية: 8000 متر

METAR: GOOY 132100Z 00000KT 8000 NSC 26/21 Q1009

زمن: 21:36 (21:36 UTC)

توقعات

تاريخ ووقت الإصدار 4ساعات و 36 دقيقة قبل الساعة 17:00UTC
التوقعات صالحة من13 الساعة 18 UTC إلى 14 الساعة 24 UTC
ريح 11 عقدة من الشمال/الشمال الغربي
الرؤية: 7000 متر

TAF: GOOY 131700Z 1318/1424 34011KT 7000 NSC

أرصاد الطقس والتوقعات من أكثر من 4000 مطار (تقارير الطقس للمطار METAR والتنبؤ بالطقس بالمطارTAF).

المحطات المتاحة هي النقط الصفراء والحمراء على الخريطة.

حرك المؤشر فوق النقطة لمعرفة اسم المحطة.

ثم انقر لمعرفة أرصاد وتوقعات الطقس.

لتغيير الخارطة: اضغط على الأزرار الخضراء مع رمز الصليب الأسود للتكبير. على الزر الأخضر مع شرطة للتصغير، أو على الأسهم الخضراء للخرائط المجاورة.


METAR-TAF: